sensor_id;sensor_type;location;lat;lon;timestamp;P1;durP1;ratioP1;P2;durP2;ratioP2
73315;SDS011;61545;53.726;-0.444;2023-07-29T00:03:56;3.2;;;1.1;;
73315;SDS011;61545;53.726;-0.444;2023-07-29T00:08:56;1.8;;;1.1;;
73315;SDS011;61545;53.726;-0.444;2023-07-29T00:13:56;1.5;;;0.8;;
73315;SDS011;61545;53.726;-0.444;2023-07-29T00:18:56;1.9;;;1;;
73315;SDS011;61545;53.726;-0.444;2023-07-29T00:23:56;3.8;;;1.3;;
73315;SDS011;61545;53.726;-0.444;2023-07-29T00:28:56;3.8;;;1.3;;
73315;SDS011;61545;53.726;-0.444;2023-07-29T00:33:56;2.7;;;1.4;;
73315;SDS011;61545;53.726;-0.444;2023-07-29T00:38:56;1.6;;;1;;
73315;SDS011;61545;53.726;-0.444;2023-07-29T00:43:56;2.1;;;1.3;;
73315;SDS011;61545;53.726;-0.444;2023-07-29T00:48:56;2.5;;;1.2;;
73315;SDS011;61545;53.726;-0.444;2023-07-29T00:53:56;2.4;;;1.4;;
73315;SDS011;61545;53.726;-0.444;2023-07-29T00:58:56;2.4;;;1.4;;
73315;SDS011;61545;53.726;-0.444;2023-07-29T01:03:56;2.6;;;1.4;;
73315;SDS011;61545;53.726;-0.444;2023-07-29T01:08:59;2.1;;;1.4;;
73315;SDS011;61545;53.726;-0.444;2023-07-29T01:13:58;2.4;;;1.2;;
73315;SDS011;61545;53.726;-0.444;2023-07-29T01:18:57;3.3;;;1.2;;
73315;SDS011;61545;53.726;-0.444;2023-07-29T01:23:58;1.7;;;1.2;;
73315;SDS011;61545;53.726;-0.444;2023-07-29T01:28:56;1.7;;;1.2;;
73315;SDS011;61545;53.726;-0.444;2023-07-29T01:33:59;2.4;;;1.3;;
73315;SDS011;61545;53.726;-0.444;2023-07-29T01:38:56;3.9;;;1.3;;
73315;SDS011;61545;53.726;-0.444;2023-07-29T01:43:56;2.1;;;1.1;;
73315;SDS011;61545;53.726;-0.444;2023-07-29T01:48:56;4.2;;;1.4;;
73315;SDS011;61545;53.726;-0.444;2023-07-29T01:53:56;6.3;;;1.8;;
73315;SDS011;61545;53.726;-0.444;2023-07-29T01:58:56;6.3;;;1.8;;
73315;SDS011;61545;53.726;-0.444;2023-07-29T02:03:57;2.8;;;1.2;;
73315;SDS011;61545;53.726;-0.444;2023-07-29T02:08:56;2.9;;;1.4;;
73315;SDS011;61545;53.726;-0.444;2023-07-29T02:13:57;2.4;;;1.3;;
73315;SDS011;61545;53.726;-0.444;2023-07-29T02:18:56;3.4;;;1.5;;
73315;SDS011;61545;53.726;-0.444;2023-07-29T02:23:56;3.0;;;1.4;;
73315;SDS011;61545;53.726;-0.444;2023-07-29T02:28:56;3.0;;;1.4;;
73315;SDS011;61545;53.726;-0.444;2023-07-29T02:33:56;3.9;;;1.4;;
73315;SDS011;61545;53.726;-0.444;2023-07-29T02:38:56;1.4;;;1.1;;
73315;SDS011;61545;53.726;-0.444;2023-07-29T02:43:56;4.2;;;1.4;;
73315;SDS011;61545;53.726;-0.444;2023-07-29T02:48:56;1.5;;;1;;
73315;SDS011;61545;53.726;-0.444;2023-07-29T02:53:56;1.9;;;1.1;;
73315;SDS011;61545;53.726;-0.444;2023-07-29T02:58:56;1.9;;;1.1;;
73315;SDS011;61545;53.726;-0.444;2023-07-29T03:03:56;4.5;;;1.5;;
73315;SDS011;61545;53.726;-0.444;2023-07-29T03:08:56;1.7;;;1.2;;
73315;SDS011;61545;53.726;-0.444;2023-07-29T03:13:56;4.5;;;1.6;;
73315;SDS011;61545;53.726;-0.444;2023-07-29T03:18:56;2.9;;;1.6;;
73315;SDS011;61545;53.726;-0.444;2023-07-29T03:23:57;1.9;;;1.2;;
73315;SDS011;61545;53.726;-0.444;2023-07-29T03:28:56;1.9;;;1.2;;
73315;SDS011;61545;53.726;-0.444;2023-07-29T03:33:56;2.2;;;1.6;;
73315;SDS011;61545;53.726;-0.444;2023-07-29T03:38:56;5.0;;;1.3;;
73315;SDS011;61545;53.726;-0.444;2023-07-29T03:43:57;5.8;;;1.4;;
73315;SDS011;61545;53.726;-0.444;2023-07-29T03:48:56;3.0;;;1.3;;
73315;SDS011;61545;53.726;-0.444;2023-07-29T03:53:56;4.4;;;1.2;;
73315;SDS011;61545;53.726;-0.444;2023-07-29T03:59:02;4.4;;;1.2;;
73315;SDS011;61545;53.726;-0.444;2023-07-29T04:03:57;2.1;;;1.2;;
73315;SDS011;61545;53.726;-0.444;2023-07-29T04:08:57;2.2;;;1.2;;
73315;SDS011;61545;53.726;-0.444;2023-07-29T04:13:57;2.9;;;1.2;;
73315;SDS011;61545;53.726;-0.444;2023-07-29T04:18:57;3.8;;;1.3;;
73315;SDS011;61545;53.726;-0.444;2023-07-29T04:23:57;3.4;;;1.1;;
73315;SDS011;61545;53.726;-0.444;2023-07-29T04:28:57;3.4;;;1.1;;
73315;SDS011;61545;53.726;-0.444;2023-07-29T04:33:57;2.8;;;1.3;;
73315;SDS011;61545;53.726;-0.444;2023-07-29T04:38:57;4.3;;;1.1;;
73315;SDS011;61545;53.726;-0.444;2023-07-29T04:43:57;5.8;;;1.2;;
73315;SDS011;61545;53.726;-0.444;2023-07-29T04:48:57;4.4;;;1.4;;
73315;SDS011;61545;53.726;-0.444;2023-07-29T04:53:57;5.8;;;1.3;;
73315;SDS011;61545;53.726;-0.444;2023-07-29T04:58:57;5.8;;;1.3;;
73315;SDS011;61545;53.726;-0.444;2023-07-29T05:03:57;1.4;;;1;;
73315;SDS011;61545;53.726;-0.444;2023-07-29T05:08:57;2.8;;;1.1;;
73315;SDS011;61545;53.726;-0.444;2023-07-29T05:13:57;3.3;;;1.3;;
73315;SDS011;61545;53.726;-0.444;2023-07-29T05:18:57;3.9;;;1.2;;
73315;SDS011;61545;53.726;-0.444;2023-07-29T05:23:57;2.9;;;1.2;;
73315;SDS011;61545;53.726;-0.444;2023-07-29T05:28:57;2.9;;;1.2;;
73315;SDS011;61545;53.726;-0.444;2023-07-29T05:33:57;3.6;;;1.3;;
73315;SDS011;61545;53.726;-0.444;2023-07-29T05:38:57;4.3;;;1.4;;
73315;SDS011;61545;53.726;-0.444;2023-07-29T05:43:57;3.8;;;1.3;;
73315;SDS011;61545;53.726;-0.444;2023-07-29T05:48:57;3.7;;;1.4;;
73315;SDS011;61545;53.726;-0.444;2023-07-29T05:53:57;5.8;;;1.5;;
73315;SDS011;61545;53.726;-0.444;2023-07-29T05:58:57;5.8;;;1.5;;
73315;SDS011;61545;53.726;-0.444;2023-07-29T06:03:57;3.5;;;1.3;;
73315;SDS011;61545;53.726;-0.444;2023-07-29T06:08:57;4.3;;;1.3;;
73315;SDS011;61545;53.726;-0.444;2023-07-29T06:13:57;4.5;;;1.4;;
73315;SDS011;61545;53.726;-0.444;2023-07-29T06:18:57;4.4;;;1.5;;
73315;SDS011;61545;53.726;-0.444;2023-07-29T06:23:57;4.7;;;1.3;;
73315;SDS011;61545;53.726;-0.444;2023-07-29T06:28:57;4.7;;;1.3;;
73315;SDS011;61545;53.726;-0.444;2023-07-29T06:33:57;5.6;;;1.6;;
73315;SDS011;61545;53.726;-0.444;2023-07-29T06:38:57;6.0;;;2;;
73315;SDS011;61545;53.726;-0.444;2023-07-29T06:43:57;3.7;;;1.4;;
73315;SDS011;61545;53.726;-0.444;2023-07-29T06:48:57;6.7;;;1.3;;
73315;SDS011;61545;53.726;-0.444;2023-07-29T06:53:57;5.3;;;1.6;;
73315;SDS011;61545;53.726;-0.444;2023-07-29T06:58:57;5.3;;;1.6;;
73315;SDS011;61545;53.726;-0.444;2023-07-29T07:03:57;7.6;;;2.2;;
73315;SDS011;61545;53.726;-0.444;2023-07-29T07:08:57;7.5;;;2.2;;
73315;SDS011;61545;53.726;-0.444;2023-07-29T07:13:57;4.4;;;1.8;;
73315;SDS011;61545;53.726;-0.444;2023-07-29T07:18:57;5.5;;;1.7;;
73315;SDS011;61545;53.726;-0.444;2023-07-29T07:23:57;7.4;;;1.7;;
73315;SDS011;61545;53.726;-0.444;2023-07-29T07:28:57;7.4;;;1.7;;
73315;SDS011;61545;53.726;-0.444;2023-07-29T07:33:57;8.2;;;2.1;;
73315;SDS011;61545;53.726;-0.444;2023-07-29T07:38:57;9.4;;;2;;
73315;SDS011;61545;53.726;-0.444;2023-07-29T07:43:57;4.1;;;1.4;;
73315;SDS011;61545;53.726;-0.444;2023-07-29T07:48:57;5.9;;;1.4;;
73315;SDS011;61545;53.726;-0.444;2023-07-29T07:53:57;4.2;;;1.5;;
73315;SDS011;61545;53.726;-0.444;2023-07-29T07:58:57;4.2;;;1.5;;
73315;SDS011;61545;53.726;-0.444;2023-07-29T08:03:57;4.7;;;1.6;;
73315;SDS011;61545;53.726;-0.444;2023-07-29T08:08:57;3.4;;;1.4;;
73315;SDS011;61545;53.726;-0.444;2023-07-29T08:13:58;3.9;;;1.4;;
73315;SDS011;61545;53.726;-0.444;2023-07-29T08:18:57;6.2;;;1.5;;
73315;SDS011;61545;53.726;-0.444;2023-07-29T08:23:57;3.1;;;1.4;;
73315;SDS011;61545;53.726;-0.444;2023-07-29T08:28:57;3.1;;;1.4;;
73315;SDS011;61545;53.726;-0.444;2023-07-29T08:33:57;4.9;;;1.7;;
73315;SDS011;61545;53.726;-0.444;2023-07-29T08:38:57;3.7;;;1.1;;
73315;SDS011;61545;53.726;-0.444;2023-07-29T08:44:01;5.8;;;1.6;;
73315;SDS011;61545;53.726;-0.444;2023-07-29T08:48:57;4.7;;;1.5;;
73315;SDS011;61545;53.726;-0.444;2023-07-29T08:53:57;4.9;;;1.4;;
73315;SDS011;61545;53.726;-0.444;2023-07-29T08:58:57;4.9;;;1.4;;
73315;SDS011;61545;53.726;-0.444;2023-07-29T09:03:57;3.2;;;1.2;;
73315;SDS011;61545;53.726;-0.444;2023-07-29T09:08:58;4.5;;;1.3;;
73315;SDS011;61545;53.726;-0.444;2023-07-29T09:13:57;2.0;;;1.1;;
73315;SDS011;61545;53.726;-0.444;2023-07-29T09:18:58;4.2;;;1.6;;
73315;SDS011;61545;53.726;-0.444;2023-07-29T09:24:02;5.9;;;1.5;;
73315;SDS011;61545;53.726;-0.444;2023-07-29T09:28:58;5.9;;;1.5;;
73315;SDS011;61545;53.726;-0.444;2023-07-29T09:33:57;4.7;;;1.5;;
73315;SDS011;61545;53.726;-0.444;2023-07-29T09:38:57;4.0;;;1.5;;
73315;SDS011;61545;53.726;-0.444;2023-07-29T09:43:58;5.5;;;1.2;;
73315;SDS011;61545;53.726;-0.444;2023-07-29T09:48:57;7.5;;;1.5;;
73315;SDS011;61545;53.726;-0.444;2023-07-29T09:53:57;7.5;;;1.5;;
73315;SDS011;61545;53.726;-0.444;2023-07-29T09:58:57;4.2;;;1.1;;
73315;SDS011;61545;53.726;-0.444;2023-07-29T10:03:57;4.5;;;1;;
73315;SDS011;61545;53.726;-0.444;2023-07-29T10:08:57;3.9;;;0.9;;
73315;SDS011;61545;53.726;-0.444;2023-07-29T10:13:57;1.6;;;0.6;;
73315;SDS011;61545;53.726;-0.444;2023-07-29T10:18:57;3.0;;;0.9;;
73315;SDS011;61545;53.726;-0.444;2023-07-29T10:23:57;3.0;;;0.9;;
73315;SDS011;61545;53.726;-0.444;2023-07-29T10:28:57;2.0;;;0.8;;
73315;SDS011;61545;53.726;-0.444;2023-07-29T10:33:57;2.9;;;1.1;;
73315;SDS011;61545;53.726;-0.444;2023-07-29T10:38:57;4.2;;;1.3;;
73315;SDS011;61545;53.726;-0.444;2023-07-29T10:43:57;3.2;;;1;;
73315;SDS011;61545;53.726;-0.444;2023-07-29T10:48:57;3.7;;;1.1;;
73315;SDS011;61545;53.726;-0.444;2023-07-29T10:53:58;3.7;;;1.1;;
73315;SDS011;61545;53.726;-0.444;2023-07-29T10:58:59;5.2;;;1.5;;
73315;SDS011;61545;53.726;-0.444;2023-07-29T11:04:19;4.5;;;0.9;;
73315;SDS011;61545;53.726;-0.444;2023-07-29T11:08:57;2.9;;;1.1;;
73315;SDS011;61545;53.726;-0.444;2023-07-29T11:13:57;4.2;;;1;;
73315;SDS011;61545;53.726;-0.444;2023-07-29T11:18:57;2.4;;;0.8;;
73315;SDS011;61545;53.726;-0.444;2023-07-29T11:23:57;2.4;;;0.8;;
73315;SDS011;61545;53.726;-0.444;2023-07-29T11:28:57;4.8;;;1.2;;
73315;SDS011;61545;53.726;-0.444;2023-07-29T11:33:57;4.9;;;1.2;;
73315;SDS011;61545;53.726;-0.444;2023-07-29T11:38:57;4.0;;;1.3;;
73315;SDS011;61545;53.726;-0.444;2023-07-29T11:43:57;3.7;;;1;;
73315;SDS011;61545;53.726;-0.444;2023-07-29T11:48:57;3.9;;;1.1;;
73315;SDS011;61545;53.726;-0.444;2023-07-29T11:53:57;3.9;;;1.1;;
73315;SDS011;61545;53.726;-0.444;2023-07-29T11:58:57;4.5;;;1.2;;
73315;SDS011;61545;53.726;-0.444;2023-07-29T12:03:57;4.8;;;1.5;;
73315;SDS011;61545;53.726;-0.444;2023-07-29T12:08:57;3.1;;;0.9;;
73315;SDS011;61545;53.726;-0.444;2023-07-29T12:13:57;3.9;;;1.1;;
73315;SDS011;61545;53.726;-0.444;2023-07-29T12:19:00;4.0;;;1;;
73315;SDS011;61545;53.726;-0.444;2023-07-29T12:23:57;4.0;;;1;;
73315;SDS011;61545;53.726;-0.444;2023-07-29T12:28:57;4.7;;;1.2;;
73315;SDS011;61545;53.726;-0.444;2023-07-29T12:33:57;4.4;;;1.5;;
73315;SDS011;61545;53.726;-0.444;2023-07-29T12:38:59;2.6;;;0.9;;
73315;SDS011;61545;53.726;-0.444;2023-07-29T12:43:57;2.2;;;0.8;;
73315;SDS011;61545;53.726;-0.444;2023-07-29T12:48:57;6.0;;;1.4;;
73315;SDS011;61545;53.726;-0.444;2023-07-29T12:53:57;6.0;;;1.4;;
73315;SDS011;61545;53.726;-0.444;2023-07-29T12:58:57;3.5;;;0.9;;
73315;SDS011;61545;53.726;-0.444;2023-07-29T13:03:57;3.6;;;0.9;;
73315;SDS011;61545;53.726;-0.444;2023-07-29T13:08:57;3.3;;;0.9;;
73315;SDS011;61545;53.726;-0.444;2023-07-29T13:13:57;4.4;;;0.9;;
73315;SDS011;61545;53.726;-0.444;2023-07-29T13:18:57;5.0;;;1.1;;
73315;SDS011;61545;53.726;-0.444;2023-07-29T13:23:57;5.0;;;1.1;;
73315;SDS011;61545;53.726;-0.444;2023-07-29T13:28:57;6.4;;;1.2;;
73315;SDS011;61545;53.726;-0.444;2023-07-29T13:33:57;4.1;;;1.6;;
73315;SDS011;61545;53.726;-0.444;2023-07-29T13:38:57;4.6;;;1.6;;
73315;SDS011;61545;53.726;-0.444;2023-07-29T13:43:57;6.7;;;1.3;;
73315;SDS011;61545;53.726;-0.444;2023-07-29T13:48:57;5.3;;;1.3;;
73315;SDS011;61545;53.726;-0.444;2023-07-29T13:53:57;5.3;;;1.3;;
73315;SDS011;61545;53.726;-0.444;2023-07-29T13:58:57;5.5;;;1.3;;
73315;SDS011;61545;53.726;-0.444;2023-07-29T14:03:57;5.0;;;1.4;;
73315;SDS011;61545;53.726;-0.444;2023-07-29T14:08:57;4.4;;;1.3;;
73315;SDS011;61545;53.726;-0.444;2023-07-29T14:13:57;6.0;;;1.5;;
73315;SDS011;61545;53.726;-0.444;2023-07-29T14:18:57;3.0;;;1;;
73315;SDS011;61545;53.726;-0.444;2023-07-29T14:23:57;3.0;;;1;;
73315;SDS011;61545;53.726;-0.444;2023-07-29T14:28:57;4.3;;;1.1;;
73315;SDS011;61545;53.726;-0.444;2023-07-29T14:33:57;6.9;;;1.4;;
73315;SDS011;61545;53.726;-0.444;2023-07-29T14:38:57;4.7;;;1.2;;
73315;SDS011;61545;53.726;-0.444;2023-07-29T14:43:57;4.4;;;1.1;;
73315;SDS011;61545;53.726;-0.444;2023-07-29T14:48:58;7.3;;;1.5;;
73315;SDS011;61545;53.726;-0.444;2023-07-29T14:53:57;7.3;;;1.5;;
73315;SDS011;61545;53.726;-0.444;2023-07-29T14:58:57;2.1;;;1;;
73315;SDS011;61545;53.726;-0.444;2023-07-29T15:03:57;3.7;;;1;;
73315;SDS011;61545;53.726;-0.444;2023-07-29T15:08:57;5.7;;;1;;
73315;SDS011;61545;53.726;-0.444;2023-07-29T15:13:57;3.0;;;0.9;;
73315;SDS011;61545;53.726;-0.444;2023-07-29T15:18:58;3.9;;;1.2;;
73315;SDS011;61545;53.726;-0.444;2023-07-29T15:23:57;3.9;;;1.2;;
73315;SDS011;61545;53.726;-0.444;2023-07-29T15:28:58;5.0;;;1.3;;
73315;SDS011;61545;53.726;-0.444;2023-07-29T15:33:57;2.6;;;0.9;;
73315;SDS011;61545;53.726;-0.444;2023-07-29T15:38:57;1.9;;;1;;
73315;SDS011;61545;53.726;-0.444;2023-07-29T15:43:57;2.8;;;0.8;;
73315;SDS011;61545;53.726;-0.444;2023-07-29T15:48:57;2.5;;;0.9;;
73315;SDS011;61545;53.726;-0.444;2023-07-29T15:53:57;2.5;;;0.9;;
73315;SDS011;61545;53.726;-0.444;2023-07-29T15:58:57;4.3;;;1.1;;
73315;SDS011;61545;53.726;-0.444;2023-07-29T16:03:57;3.0;;;1;;
73315;SDS011;61545;53.726;-0.444;2023-07-29T16:08:57;3.7;;;1.1;;
73315;SDS011;61545;53.726;-0.444;2023-07-29T16:13:57;3.9;;;1.3;;
73315;SDS011;61545;53.726;-0.444;2023-07-29T16:18:58;3.8;;;0.9;;
73315;SDS011;61545;53.726;-0.444;2023-07-29T16:23:57;3.8;;;0.9;;
73315;SDS011;61545;53.726;-0.444;2023-07-29T16:28:57;3.4;;;0.7;;
73315;SDS011;61545;53.726;-0.444;2023-07-29T16:33:57;5.5;;;0.9;;
73315;SDS011;61545;53.726;-0.444;2023-07-29T16:38:57;2.9;;;0.8;;
73315;SDS011;61545;53.726;-0.444;2023-07-29T16:43:57;2.1;;;0.8;;
73315;SDS011;61545;53.726;-0.444;2023-07-29T16:48:57;2.0;;;0.7;;
73315;SDS011;61545;53.726;-0.444;2023-07-29T16:53:57;2.0;;;0.7;;
73315;SDS011;61545;53.726;-0.444;2023-07-29T16:58:57;3.6;;;1;;
73315;SDS011;61545;53.726;-0.444;2023-07-29T17:03:57;2.9;;;0.9;;
73315;SDS011;61545;53.726;-0.444;2023-07-29T17:08:57;3.0;;;0.9;;
73315;SDS011;61545;53.726;-0.444;2023-07-29T17:13:57;4.3;;;0.6;;
73315;SDS011;61545;53.726;-0.444;2023-07-29T17:18:57;3.4;;;0.8;;
73315;SDS011;61545;53.726;-0.444;2023-07-29T17:23:57;3.4;;;0.8;;
73315;SDS011;61545;53.726;-0.444;2023-07-29T17:28:57;2.4;;;0.8;;
73315;SDS011;61545;53.726;-0.444;2023-07-29T17:33:57;3.1;;;0.8;;
73315;SDS011;61545;53.726;-0.444;2023-07-29T17:38:57;4.4;;;0.9;;
73315;SDS011;61545;53.726;-0.444;2023-07-29T17:43:57;3.2;;;1.1;;
73315;SDS011;61545;53.726;-0.444;2023-07-29T17:48:57;7.8;;;1;;
73315;SDS011;61545;53.726;-0.444;2023-07-29T17:53:57;7.8;;;1;;
73315;SDS011;61545;53.726;-0.444;2023-07-29T17:58:57;3.4;;;0.9;;
73315;SDS011;61545;53.726;-0.444;2023-07-29T18:03:57;4.2;;;1.1;;
73315;SDS011;61545;53.726;-0.444;2023-07-29T18:08:57;5.4;;;1;;
73315;SDS011;61545;53.726;-0.444;2023-07-29T18:13:57;2.6;;;0.8;;
73315;SDS011;61545;53.726;-0.444;2023-07-29T18:18:57;6.4;;;0.7;;
73315;SDS011;61545;53.726;-0.444;2023-07-29T18:23:57;6.4;;;0.7;;
73315;SDS011;61545;53.726;-0.444;2023-07-29T18:28:57;3.1;;;0.9;;
73315;SDS011;61545;53.726;-0.444;2023-07-29T18:33:57;3.2;;;0.9;;
73315;SDS011;61545;53.726;-0.444;2023-07-29T18:38:57;6.2;;;0.8;;
73315;SDS011;61545;53.726;-0.444;2023-07-29T18:43:57;4.8;;;1.4;;
73315;SDS011;61545;53.726;-0.444;2023-07-29T18:48:57;2.5;;;0.8;;
73315;SDS011;61545;53.726;-0.444;2023-07-29T18:53:57;2.5;;;0.8;;
73315;SDS011;61545;53.726;-0.444;2023-07-29T18:58:57;3.4;;;0.9;;
73315;SDS011;61545;53.726;-0.444;2023-07-29T19:03:57;5.1;;;1.1;;
73315;SDS011;61545;53.726;-0.444;2023-07-29T19:08:57;4.6;;;1;;
73315;SDS011;61545;53.726;-0.444;2023-07-29T19:13:57;3.7;;;0.9;;
73315;SDS011;61545;53.726;-0.444;2023-07-29T19:18:58;3.6;;;1;;
73315;SDS011;61545;53.726;-0.444;2023-07-29T19:23:57;3.6;;;1;;
73315;SDS011;61545;53.726;-0.444;2023-07-29T19:28:57;6.7;;;1.3;;
73315;SDS011;61545;53.726;-0.444;2023-07-29T19:33:57;3.9;;;1;;
73315;SDS011;61545;53.726;-0.444;2023-07-29T19:38:57;9.8;;;1.3;;
73315;SDS011;61545;53.726;-0.444;2023-07-29T19:43:57;4.3;;;1;;
73315;SDS011;61545;53.726;-0.444;2023-07-29T19:48:57;6.2;;;1.2;;
73315;SDS011;61545;53.726;-0.444;2023-07-29T19:53:57;6.2;;;1.2;;
73315;SDS011;61545;53.726;-0.444;2023-07-29T19:58:57;3.0;;;1.1;;
73315;SDS011;61545;53.726;-0.444;2023-07-29T20:03:57;6.0;;;1.2;;
73315;SDS011;61545;53.726;-0.444;2023-07-29T20:08:57;4.4;;;0.8;;
73315;SDS011;61545;53.726;-0.444;2023-07-29T20:13:57;3.7;;;1;;
73315;SDS011;61545;53.726;-0.444;2023-07-29T20:18:57;3.9;;;0.9;;
73315;SDS011;61545;53.726;-0.444;2023-07-29T20:23:57;3.9;;;0.9;;
73315;SDS011;61545;53.726;-0.444;2023-07-29T20:28:57;5.0;;;1.1;;
73315;SDS011;61545;53.726;-0.444;2023-07-29T20:33:57;5.2;;;1;;
73315;SDS011;61545;53.726;-0.444;2023-07-29T20:38:57;8.1;;;1.7;;
73315;SDS011;61545;53.726;-0.444;2023-07-29T20:43:57;4.4;;;1.4;;
73315;SDS011;61545;53.726;-0.444;2023-07-29T20:48:57;9.0;;;1.6;;
73315;SDS011;61545;53.726;-0.444;2023-07-29T20:53:57;9.0;;;1.6;;
73315;SDS011;61545;53.726;-0.444;2023-07-29T20:58:57;4.7;;;1.3;;
73315;SDS011;61545;53.726;-0.444;2023-07-29T21:03:57;8.0;;;1.6;;
73315;SDS011;61545;53.726;-0.444;2023-07-29T21:08:57;5.6;;;1.6;;
73315;SDS011;61545;53.726;-0.444;2023-07-29T21:13:57;7.9;;;1.4;;
73315;SDS011;61545;53.726;-0.444;2023-07-29T21:18:57;4.9;;;1.2;;
73315;SDS011;61545;53.726;-0.444;2023-07-29T21:23:57;4.9;;;1.2;;
73315;SDS011;61545;53.726;-0.444;2023-07-29T21:28:57;5.9;;;1.5;;
73315;SDS011;61545;53.726;-0.444;2023-07-29T21:33:57;6.8;;;1.5;;
73315;SDS011;61545;53.726;-0.444;2023-07-29T21:38:57;3.8;;;1.4;;
73315;SDS011;61545;53.726;-0.444;2023-07-29T21:43:57;7.3;;;1.5;;
73315;SDS011;61545;53.726;-0.444;2023-07-29T21:48:57;7.3;;;1.5;;
73315;SDS011;61545;53.726;-0.444;2023-07-29T21:53:57;5.6;;;1.7;;
73315;SDS011;61545;53.726;-0.444;2023-07-29T21:58:57;8.9;;;1.5;;
73315;SDS011;61545;53.726;-0.444;2023-07-29T22:03:57;7.7;;;1.7;;
73315;SDS011;61545;53.726;-0.444;2023-07-29T22:08:57;9.6;;;2.1;;
73315;SDS011;61545;53.726;-0.444;2023-07-29T22:13:57;5.2;;;1.5;;
73315;SDS011;61545;53.726;-0.444;2023-07-29T22:18:57;5.2;;;1.5;;
73315;SDS011;61545;53.726;-0.444;2023-07-29T22:23:57;5.2;;;1.1;;
73315;SDS011;61545;53.726;-0.444;2023-07-29T22:28:57;8.2;;;1.8;;
73315;SDS011;61545;53.726;-0.444;2023-07-29T22:33:57;6.5;;;1.8;;
73315;SDS011;61545;53.726;-0.444;2023-07-29T22:38:57;8.1;;;1.8;;
73315;SDS011;61545;53.726;-0.444;2023-07-29T22:43:57;9.5;;;2;;
73315;SDS011;61545;53.726;-0.444;2023-07-29T22:48:57;9.5;;;2;;
73315;SDS011;61545;53.726;-0.444;2023-07-29T22:53:57;7.3;;;1.8;;
73315;SDS011;61545;53.726;-0.444;2023-07-29T22:58:57;5.9;;;1.6;;
73315;SDS011;61545;53.726;-0.444;2023-07-29T23:03:57;8.1;;;1.8;;
73315;SDS011;61545;53.726;-0.444;2023-07-29T23:08:57;7.7;;;2.5;;
73315;SDS011;61545;53.726;-0.444;2023-07-29T23:13:57;9.1;;;2.5;;
73315;SDS011;61545;53.726;-0.444;2023-07-29T23:18:57;9.1;;;2.5;;
73315;SDS011;61545;53.726;-0.444;2023-07-29T23:23:57;9.7;;;3.7;;
73315;SDS011;61545;53.726;-0.444;2023-07-29T23:28:57;10.1;;;3;;
73315;SDS011;61545;53.726;-0.444;2023-07-29T23:33:57;9.5;;;2.3;;
73315;SDS011;61545;53.726;-0.444;2023-07-29T23:38:57;9.0;;;2.1;;
73315;SDS011;61545;53.726;-0.444;2023-07-29T23:43:57;9.0;;;2;;
73315;SDS011;61545;53.726;-0.444;2023-07-29T23:48:57;9.0;;;2;;
73315;SDS011;61545;53.726;-0.444;2023-07-29T23:53:57;7.7;;;1.7;;
73315;SDS011;61545;53.726;-0.444;2023-07-29T23:58:57;12.6;;;2.5;;
